Sns 262 — FGA2745 — position and weather

sailwx.info

Track history (hours):
 
Tides and Currents Weather Stations Pressure Air Temp Water Temp Dewpoint Dewpoint Depression Visibility Wind Speed Wind Dir Waves Ship Positions

Sns 262

Last reported at 2018-Feb-24 15:18 UTC. Time now 2018-Feb-25 22:14 UTC.
Position N 43°33' E 007°01'.

Length 10 m.

Type: SAR. MMSI: 227008150.

Date/timePositionNaut miles runAvg speedWind from/ knotsBaromVisibWave heightAir tempDewpointWater temp
2018-Feb-24 15:18N 43°33' E 007°01'0 1.0
2018-Feb-24 14:55N 43°32' E 007°01'0 0.0
2018-Feb-22 18:32N 43°33' E 007°01'0 3.7
2018-Feb-22 18:30N 43°33' E 007°01'2 3.3
2018-Feb-22 18:00N 43°31' E 007°02'  
2018-Feb-17 14:34N 43°33' E 007°01'1 7.4
2018-Feb-17 14:26N 43°32' E 006°60'1 2.5
2018-Feb-17 13:56N 43°32' E 007°01'0 1.0
2018-Feb-17 13:30N 43°32' E 007°02'1 0.1
2018-Feb-16 19:20N 43°33' E 007°01'2 5.6
2018-Feb-16 19:00N 43°31' E 007°01'2 0.3
2018-Feb-16 11:25N 43°33' E 007°01'3 6.4
2018-Feb-16 10:57N 43°30' E 007°03'3 1.4
2018-Feb-16 08:47N 43°33' E 007°01'  
Track history (hours):
 
Tides and Currents Weather Stations Pressure Air Temp Water Temp Dewpoint Dewpoint Depression Visibility Wind Speed Wind Dir Waves Ship Positions

Sns 262

Last reported at 2018-Feb-24 15:18 UTC. Time now 2018-Feb-25 22:14 UTC.
Position N 43°33' E 007°01'.

Length 10 m.

Type: SAR. MMSI: 227008150.

Date/timePositionNaut miles runAvg speedWind from/ knotsBaromVisibWave heightAir tempDewpointWater temp
2018-Feb-24 15:18N 43°33' E 007°01'0 1.0
2018-Feb-24 14:55N 43°32' E 007°01'0 0.0
2018-Feb-22 18:32N 43°33' E 007°01'0 3.7
2018-Feb-22 18:30N 43°33' E 007°01'2 3.3
2018-Feb-22 18:00N 43°31' E 007°02'  
2018-Feb-17 14:34N 43°33' E 007°01'1 7.4
2018-Feb-17 14:26N 43°32' E 006°60'1 2.5
2018-Feb-17 13:56N 43°32' E 007°01'0 1.0
2018-Feb-17 13:30N 43°32' E 007°02'1 0.1
2018-Feb-16 19:20N 43°33' E 007°01'2 5.6
2018-Feb-16 19:00N 43°31' E 007°01'2 0.3
2018-Feb-16 11:25N 43°33' E 007°01'3 6.4
2018-Feb-16 10:57N 43°30' E 007°03'3 1.4
2018-Feb-16 08:47N 43°33' E 007°01'  

Dump ship's entire track history